Time;durP1;ratioP1;P1;durP2;ratioP2;P2;SDS_P1;SDS_P2;PMS_P1;PMS_P2;Temp;Humidity;BMP_temperature;BMP_pressure;BME280_temperature;BME280_humidity;BME280_pressure;Samples;Min_cycle;Max_cycle;Signal;HPM_P1;HPM_P2
2022/03/25 00:01:27;;;;;;;13.85;11.35;;;7.80;69.20;;;;;;5035719;28;20475;-62
2022/03/25 00:03:53;;;;;;;17.30;12.80;;;7.90;69.30;;;;;;5057135;28;20204;-61
2022/03/25 00:06:19;;;;;;;18.67;12.63;;;7.80;69.70;;;;;;5054541;28;20189;-62
2022/03/25 00:08:45;;;;;;;17.53;12.07;;;7.80;70.30;;;;;;5061915;28;20196;-62
2022/03/25 00:11:11;;;;;;;15.93;12.30;;;7.70;70.10;;;;;;5063096;28;20209;-62
2022/03/25 00:13:37;;;;;;;16.13;11.77;;;7.90;70.70;;;;;;5052028;28;20639;-63
2022/03/25 00:16:06;;;;;;;17.60;12.83;;;7.70;71.20;;;;;;5050158;28;20196;-63
2022/03/25 00:18:32;;;;;;;15.43;11.30;;;7.60;70.60;;;;;;5065378;28;20187;-63
2022/03/25 00:20:58;;;;;;;19.23;12.18;;;7.60;70.00;;;;;;5056641;28;20193;-63
2022/03/25 00:23:24;;;;;;;16.20;12.30;;;7.80;71.40;;;;;;5048737;28;20559;-61
2022/03/25 00:25:50;;;;;;;14.90;11.70;;;7.50;71.50;;;;;;5051303;28;20182;-62
2022/03/25 00:28:16;;;;;;;15.93;11.50;;;7.90;72.30;;;;;;5052097;28;20196;-62
2022/03/25 00:30:42;;;;;;;14.07;11.10;;;7.60;72.50;;;;;;5051240;28;20201;-61
2022/03/25 00:33:08;;;;;;;17.42;12.20;;;7.50;73.00;;;;;;5050730;28;20204;-63
2022/03/25 00:35:33;;;;;;;18.60;13.00;;;7.40;72.40;;;;;;5055659;28;20185;-61
2022/03/25 00:37:59;;;;;;;18.67;12.93;;;7.40;73.10;;;;;;5057450;28;20190;-62
2022/03/25 00:40:24;;;;;;;14.60;12.03;;;7.60;73.90;;;;;;5054894;28;20198;-62
2022/03/25 00:42:51;;;;;;;16.40;12.60;;;7.50;73.90;;;;;;5057681;28;20275;-63
2022/03/25 00:45:16;;;;;;;20.20;12.95;;;7.40;74.40;;;;;;5050271;28;20196;-63
2022/03/25 00:47:42;;;;;;;17.40;12.27;;;7.30;73.60;;;;;;5051229;28;20555;-63
2022/03/25 00:50:08;;;;;;;16.33;12.23;;;6.80;73.30;;;;;;5055491;28;20192;-63
2022/03/25 00:52:34;;;;;;;18.25;13.63;;;7.50;74.40;;;;;;5057975;28;20549;-63
2022/03/25 00:55:00;;;;;;;17.83;13.10;;;7.20;73.80;;;;;;5048182;28;20276;-63
2022/03/25 00:57:27;;;;;;;18.55;13.20;;;6.80;74.00;;;;;;5037588;28;20849;-63
2022/03/25 00:59:53;;;;;;;16.40;11.93;;;7.10;74.80;;;;;;5049623;28;20232;-62
2022/03/25 01:02:18;;;;;;;16.33;12.40;;;7.30;75.00;;;;;;5058142;28;20205;-62
2022/03/25 01:04:44;;;;;;;15.40;12.37;;;7.10;74.80;;;;;;5051734;28;20804;-63
2022/03/25 01:07:09;;;;;;;14.80;11.93;;;7.00;75.30;;;;;;5050636;28;20632;-62
2022/03/25 01:09:35;;;;;;;16.97;12.67;;;7.20;75.60;;;;;;5052350;28;20188;-61
2022/03/25 01:12:01;;;;;;;20.70;13.23;;;7.10;75.90;;;;;;5050525;28;20300;-62
2022/03/25 01:14:27;;;;;;;19.37;12.20;;;7.00;75.90;;;;;;5056605;28;20186;-62
2022/03/25 01:16:52;;;;;;;18.40;12.43;;;6.50;76.00;;;;;;5057559;28;20332;-62
2022/03/25 01:19:20;;;;;;;17.13;12.27;;;7.00;76.20;;;;;;5049809;28;20893;-62
2022/03/25 01:21:46;;;;;;;18.70;12.50;;;7.00;76.90;;;;;;5050178;28;20201;-62
2022/03/25 01:24:12;;;;;;;16.83;12.83;;;7.20;76.90;;;;;;5050755;28;20539;-61
2022/03/25 01:26:39;;;;;;;15.60;12.15;;;7.10;77.80;;;;;;5050489;28;20443;-62
2022/03/25 01:29:05;;;;;;;17.20;13.07;;;7.30;77.80;;;;;;5053623;28;20181;-62
2022/03/25 01:31:32;;;;;;;17.07;12.93;;;6.80;78.00;;;;;;5062045;28;20300;-62
2022/03/25 01:33:58;;;;;;;19.20;13.73;;;6.70;78.30;;;;;;5059072;28;20470;-62
2022/03/25 01:36:24;;;;;;;21.65;13.65;;;6.80;78.30;;;;;;5050786;28;20181;-63
2022/03/25 01:38:49;;;;;;;18.83;12.70;;;6.90;78.30;;;;;;5050119;28;20212;-63
2022/03/25 01:41:19;;;;;;;19.90;13.17;;;6.70;77.70;;;;;;5055612;28;20210;-62
2022/03/25 01:43:55;;;;;;;19.83;12.85;;;6.80;78.20;;;;;;5053516;28;20260;-62
2022/03/25 01:46:22;;;;;;;20.58;13.27;;;6.70;78.50;;;;;;5049790;28;20284;-62
2022/03/25 01:48:48;;;;;;;16.08;12.48;;;6.90;79.20;;;;;;5058422;28;20265;-63
2022/03/25 01:51:18;;;;;;;16.73;13.05;;;6.70;79.00;;;;;;5053884;28;20771;-62
2022/03/25 01:53:44;;;;;;;17.52;13.45;;;6.60;79.20;;;;;;5054129;28;20182;-63
2022/03/25 01:56:09;;;;;;;19.00;12.77;;;6.60;79.70;;;;;;5054441;28;20174;-63
2022/03/25 01:58:35;;;;;;;19.93;13.30;;;6.20;79.40;;;;;;5055834;28;20187;-62
2022/03/25 02:01:03;;;;;;;18.30;14.03;;;6.50;79.40;;;;;;5063530;28;20220;-62
2022/03/25 02:03:31;;;;;;;21.88;13.52;;;6.60;80.40;;;;;;5057760;28;20178;-62
2022/03/25 02:05:56;;;;;;;19.80;12.70;;;6.70;81.10;;;;;;5054701;28;20694;-63
2022/03/25 02:08:22;;;;;;;18.60;12.47;;;6.50;81.60;;;;;;5064212;28;20193;-63
2022/03/25 02:10:47;;;;;;;15.10;12.37;;;6.20;82.20;;;;;;5067901;28;20217;-62
2022/03/25 02:13:13;;;;;;;18.40;14.07;;;6.20;82.40;;;;;;5061934;28;20189;-62
2022/03/25 02:15:42;;;;;;;17.43;13.53;;;6.20;83.10;;;;;;5067885;28;20185;-62
2022/03/25 02:18:14;;;;;;;20.08;13.55;;;6.50;83.60;;;;;;5061095;28;20172;-62
2022/03/25 02:20:40;;;;;;;16.38;13.07;;;6.00;83.50;;;;;;5054285;28;20189;-62
2022/03/25 02:23:07;;;;;;;20.67;14.00;;;6.20;84.10;;;;;;5058247;28;20721;-62
2022/03/25 02:25:33;;;;;;;18.30;13.85;;;6.20;83.60;;;;;;5054460;28;20196;-62
2022/03/25 02:28:00;;;;;;;18.27;13.07;;;6.20;83.90;;;;;;5053708;28;20185;-63
2022/03/25 02:30:27;;;;;;;19.08;13.43;;;6.10;85.00;;;;;;5040516;28;20571;-61
2022/03/25 02:32:57;;;;;;;19.05;14.98;;;6.10;84.90;;;;;;5053246;28;20248;-62
2022/03/25 02:35:36;;;;;;;19.30;13.95;;;6.20;85.60;;;;;;5055508;28;20189;-62
2022/03/25 02:38:03;;;;;;;22.55;14.63;;;6.30;85.50;;;;;;5052779;28;20218;-62
2022/03/25 02:40:28;;;;;;;19.67;13.80;;;5.50;84.90;;;;;;5053730;28;20618;-62
2022/03/25 02:42:54;;;;;;;20.40;12.63;;;6.10;85.60;;;;;;5052339;28;20300;-62
2022/03/25 02:45:20;;;;;;;18.40;12.93;;;6.20;85.40;;;;;;5051225;28;20546;-62
2022/03/25 02:47:46;;;;;;;17.85;13.65;;;6.10;85.60;;;;;;5053504;28;20181;-62
2022/03/25 02:50:12;;;;;;;19.57;13.60;;;6.00;86.70;;;;;;5053288;28;20259;-62
2022/03/25 02:52:37;;;;;;;18.20;13.07;;;6.00;86.70;;;;;;5053121;28;20459;-62
2022/03/25 02:55:03;;;;;;;17.70;12.40;;;6.00;86.70;;;;;;5052653;28;20266;-62
2022/03/25 02:57:29;;;;;;;20.05;13.95;;;6.00;87.00;;;;;;5038332;28;20665;-62
2022/03/25 02:59:55;;;;;;;18.90;13.23;;;6.20;87.70;;;;;;5049489;28;20223;-62
2022/03/25 03:02:20;;;;;;;20.20;13.70;;;6.00;87.80;;;;;;5046072;28;20216;-62
2022/03/25 03:04:46;;;;;;;18.20;13.90;;;5.70;87.70;;;;;;5050530;28;20189;-62
2022/03/25 03:07:12;;;;;;;25.77;14.43;;;6.00;88.10;;;;;;5062212;28;20209;-62
2022/03/25 03:09:37;;;;;;;18.42;13.07;;;5.80;88.40;;;;;;5053652;28;20246;-62
2022/03/25 03:12:03;;;;;;;19.20;13.73;;;5.40;88.20;;;;;;5058416;28;20221;-62
2022/03/25 03:14:29;;;;;;;19.90;13.50;;;5.80;88.90;;;;;;5055284;28;20223;-62
2022/03/25 03:16:54;;;;;;;18.20;13.60;;;5.80;89.50;;;;;;5054300;28;20205;-62
2022/03/25 03:19:20;;;;;;;18.23;14.40;;;5.30;89.80;;;;;;5050300;28;20204;-62
2022/03/25 03:21:46;;;;;;;23.00;13.93;;;5.60;90.00;;;;;;5052258;28;20253;-62
2022/03/25 03:24:11;;;;;;;21.60;14.40;;;5.80;90.30;;;;;;5053896;28;20233;-62
2022/03/25 03:26:37;;;;;;;20.50;13.80;;;5.60;90.50;;;;;;5053987;28;20453;-62
2022/03/25 03:29:03;;;;;;;17.83;13.20;;;5.30;90.50;;;;;;5056222;28;20188;-61
2022/03/25 03:31:29;;;;;;;18.02;12.93;;;5.40;90.90;;;;;;5057059;28;20209;-61
2022/03/25 03:33:54;;;;;;;20.57;13.43;;;5.80;91.20;;;;;;5056895;28;20177;-61
2022/03/25 03:36:20;;;;;;;21.03;13.10;;;5.20;91.10;;;;;;5052723;28;20589;-61
2022/03/25 03:38:45;;;;;;;19.37;13.90;;;5.00;90.80;;;;;;5051453;28;20653;-62
2022/03/25 03:41:11;;;;;;;20.30;13.97;;;5.50;90.90;;;;;;5058963;28;20610;-62
2022/03/25 03:43:37;;;;;;;18.53;13.67;;;5.50;91.20;;;;;;5051619;28;20610;-62
2022/03/25 03:46:03;;;;;;;21.30;12.90;;;5.50;91.20;;;;;;5052466;28;20650;-62
2022/03/25 03:48:29;;;;;;;19.25;14.10;;;5.30;91.20;;;;;;5052209;28;20184;-62
2022/03/25 03:50:55;;;;;;;19.83;14.17;;;5.30;90.80;;;;;;5044645;28;20220;-62
2022/03/25 03:53:20;;;;;;;20.83;14.80;;;5.30;91.40;;;;;;5064105;28;20527;-62
2022/03/25 03:55:46;;;;;;;20.50;14.13;;;5.40;91.70;;;;;;5050842;28;20186;-62
2022/03/25 03:58:11;;;;;;;23.37;13.63;;;5.40;91.80;;;;;;5050253;28;20239;-62
2022/03/25 04:00:37;;;;;;;18.10;14.50;;;5.50;91.90;;;;;;5037892;28;20185;-62
2022/03/25 04:03:03;;;;;;;20.37;14.13;;;5.40;91.80;;;;;;5058491;28;20240;-62
2022/03/25 04:05:28;;;;;;;25.90;14.77;;;5.40;91.70;;;;;;5054310;28;20199;-62
2022/03/25 04:07:54;;;;;;;17.07;14.00;;;5.40;91.80;;;;;;5054291;28;20681;-62
2022/03/25 04:10:20;;;;;;;22.57;17.00;;;5.50;92.40;;;;;;5051809;28;20270;-62
2022/03/25 04:12:46;;;;;;;21.27;14.18;;;5.40;92.10;;;;;;5048110;28;20824;-62
2022/03/25 04:15:12;;;;;;;21.20;14.63;;;5.40;92.20;;;;;;5054118;28;20271;-62
2022/03/25 04:17:39;;;;;;;21.30;13.98;;;5.10;92.00;;;;;;5047442;28;20212;-62
2022/03/25 04:20:06;;;;;;;19.05;13.68;;;4.70;91.90;;;;;;5049549;28;20192;-62
2022/03/25 04:22:31;;;;;;;19.90;13.20;;;5.20;92.50;;;;;;5051076;28;20287;-62
2022/03/25 04:24:57;;;;;;;18.27;13.30;;;4.70;92.20;;;;;;5052022;28;20190;-62
2022/03/25 04:27:23;;;;;;;20.83;13.20;;;5.30;92.80;;;;;;5051609;28;20216;-62
2022/03/25 04:29:49;;;;;;;22.98;15.15;;;4.60;92.30;;;;;;5042113;28;20186;-62
2022/03/25 04:32:14;;;;;;;19.47;14.10;;;5.40;93.10;;;;;;5055429;28;20640;-62
2022/03/25 04:34:40;;;;;;;22.20;14.93;;;5.10;93.10;;;;;;5042792;28;20457;-62
2022/03/25 04:37:05;;;;;;;20.40;14.37;;;5.20;92.60;;;;;;5050686;28;20242;-62
2022/03/25 04:39:31;;;;;;;21.37;14.67;;;5.10;92.70;;;;;;5050177;28;20666;-61
2022/03/25 04:41:57;;;;;;;24.83;15.00;;;5.40;92.90;;;;;;5050597;28;20215;-62
2022/03/25 04:44:22;;;;;;;20.83;15.27;;;5.40;92.60;;;;;;5049346;28;20191;-62
2022/03/25 04:46:48;;;;;;;18.90;14.07;;;5.30;92.90;;;;;;5053208;28;20183;-62
2022/03/25 04:49:13;;;;;;;22.27;14.37;;;5.30;93.10;;;;;;5052922;28;20187;-62
2022/03/25 04:51:39;;;;;;;19.20;13.53;;;5.20;93.30;;;;;;5051094;28;20212;-62
2022/03/25 04:54:05;;;;;;;21.00;14.67;;;4.90;93.50;;;;;;5053265;28;20269;-61
2022/03/25 04:56:33;;;;;;;19.45;14.38;;;4.60;93.30;;;;;;5064451;28;20266;-62
2022/03/25 04:58:59;;;;;;;21.17;14.88;;;5.00;93.40;;;;;;5050264;28;20434;-62
2022/03/25 05:01:25;;;;;;;27.30;14.00;;;5.10;93.40;;;;;;5054406;28;20834;-62
2022/03/25 05:03:50;;;;;;;18.83;13.30;;;4.50;93.10;;;;;;5036541;28;20700;-62
2022/03/25 05:06:16;;;;;;;24.60;14.80;;;4.60;93.20;;;;;;5045208;28;20186;-63
2022/03/25 05:08:41;;;;;;;21.80;14.87;;;5.20;92.90;;;;;;5054376;28;20609;-61
2022/03/25 05:11:07;;;;;;;25.53;15.07;;;5.20;93.30;;;;;;5052048;28;20218;-62
2022/03/25 05:13:33;;;;;;;18.60;13.98;;;4.40;93.40;;;;;;5057781;28;20436;-62
2022/03/25 05:15:59;;;;;;;20.80;13.47;;;4.90;93.70;;;;;;5060553;28;20195;-62
2022/03/25 05:18:24;;;;;;;19.60;14.77;;;5.00;93.60;;;;;;5055959;28;20177;-62
2022/03/25 05:20:50;;;;;;;21.40;15.17;;;4.90;93.30;;;;;;5052633;28;20343;-62
2022/03/25 05:23:16;;;;;;;20.40;14.03;;;4.80;93.80;;;;;;5054124;28;20230;-61
2022/03/25 05:25:41;;;;;;;23.27;15.98;;;4.80;93.40;;;;;;5050687;28;20752;-62
2022/03/25 05:28:07;;;;;;;19.23;12.97;;;4.60;93.50;;;;;;5056919;28;20197;-63
2022/03/25 05:30:34;;;;;;;24.73;15.60;;;4.80;94.00;;;;;;5053054;28;20204;-63
2022/03/25 05:33:00;;;;;;;22.13;15.15;;;4.90;94.20;;;;;;5052525;28;20469;-63
2022/03/25 05:35:28;;;;;;;20.75;14.88;;;5.00;94.30;;;;;;5056426;28;20214;-63
2022/03/25 05:37:54;;;;;;;20.48;15.32;;;4.90;94.20;;;;;;5050248;28;20219;-63
2022/03/25 05:40:21;;;;;;;20.70;14.70;;;4.90;94.00;;;;;;5052155;28;20222;-63
2022/03/25 05:42:48;;;;;;;20.42;15.13;;;4.90;94.40;;;;;;5045367;28;20482;-63
2022/03/25 05:45:14;;;;;;;25.00;15.77;;;4.90;94.30;;;;;;5038562;28;20186;-63
2022/03/25 05:47:41;;;;;;;20.60;15.37;;;4.90;94.70;;;;;;5041765;28;20393;-63
2022/03/25 05:50:08;;;;;;;20.48;14.90;;;4.60;94.40;;;;;;5043448;28;21039;-62
2022/03/25 05:52:34;;;;;;;24.77;14.80;;;4.70;94.50;;;;;;5050196;28;20285;-62
2022/03/25 05:55:01;;;;;;;21.52;15.55;;;4.90;94.30;;;;;;5053858;28;20231;-63
2022/03/25 05:57:26;;;;;;;20.85;15.20;;;4.90;94.50;;;;;;5050855;28;20175;-62
2022/03/25 05:59:52;;;;;;;21.87;14.30;;;4.90;94.30;;;;;;5049540;28;20605;-62
2022/03/25 06:02:18;;;;;;;22.20;15.80;;;4.80;94.30;;;;;;5051651;28;20467;-62
2022/03/25 06:04:43;;;;;;;21.50;15.03;;;4.70;94.10;;;;;;5059898;28;20272;-62
2022/03/25 06:07:11;;;;;;;24.40;15.07;;;4.80;94.20;;;;;;5038123;28;20642;-62
2022/03/25 06:09:36;;;;;;;24.58;15.73;;;5.20;94.20;;;;;;5055038;28;20180;-62
2022/03/25 06:12:02;;;;;;;22.30;15.70;;;5.20;93.50;;;;;;5048498;28;20691;-62
2022/03/25 06:14:28;;;;;;;27.10;15.82;;;5.40;93.50;;;;;;5053315;28;20351;-62
2022/03/25 06:16:54;;;;;;;23.83;15.70;;;5.30;93.50;;;;;;5052734;28;20612;-61
2022/03/25 06:19:19;;;;;;;23.70;16.50;;;5.30;93.20;;;;;;5053344;28;20276;-63
2022/03/25 06:21:45;;;;;;;25.00;15.60;;;5.40;93.50;;;;;;5054229;28;20474;-63
2022/03/25 06:24:11;;;;;;;27.80;19.07;;;4.90;93.40;;;;;;5055244;28;20755;-63
2022/03/25 06:26:36;;;;;;;24.00;15.97;;;5.10;93.50;;;;;;5054723;28;20191;-62
2022/03/25 06:29:03;;;;;;;26.30;16.47;;;5.50;93.70;;;;;;5054316;28;20454;-62
2022/03/25 06:31:28;;;;;;;27.45;15.80;;;5.30;93.30;;;;;;5052769;28;20220;-62
2022/03/25 06:33:54;;;;;;;30.40;15.97;;;6.00;92.90;;;;;;5031754;28;20189;-60
2022/03/25 06:36:20;;;;;;;28.20;16.20;;;5.90;92.40;;;;;;5041647;28;20182;-60
2022/03/25 06:38:46;;;;;;;23.37;16.07;;;6.20;92.50;;;;;;5049373;28;20427;-60
2022/03/25 06:41:12;;;;;;;25.33;16.47;;;6.30;92.00;;;;;;5062684;28;20206;-60
2022/03/25 06:43:38;;;;;;;30.30;19.98;;;6.60;92.30;;;;;;5054430;28;20545;-61
2022/03/25 06:46:04;;;;;;;25.00;15.73;;;6.30;92.10;;;;;;5054788;28;21516;-62
2022/03/25 06:48:31;;;;;;;26.10;17.00;;;6.40;91.70;;;;;;5053751;28;20546;-60
2022/03/25 06:50:59;;;;;;;23.02;16.48;;;6.40;91.70;;;;;;5053189;28;20473;-60
2022/03/25 06:53:28;;;;;;;24.83;17.52;;;6.70;91.60;;;;;;5039958;28;20386;-58
2022/03/25 06:55:54;;;;;;;24.75;16.33;;;6.40;91.10;;;;;;5037269;28;20190;-57
2022/03/25 06:58:20;;;;;;;30.25;18.13;;;7.20;91.10;;;;;;5056958;28;20173;-64
2022/03/25 07:00:46;;;;;;;25.13;18.52;;;6.90;90.50;;;;;;5050051;28;20185;-60
2022/03/25 07:03:13;;;;;;;25.60;17.45;;;7.80;89.70;;;;;;5057888;28;20193;-59
2022/03/25 07:05:40;;;;;;;29.45;16.55;;;8.50;86.80;;;;;;5057197;28;20641;-60
2022/03/25 07:08:06;;;;;;;22.00;16.15;;;9.40;83.20;;;;;;5061477;28;20206;-60
2022/03/25 07:10:33;;;;;;;24.50;17.30;;;10.00;77.50;;;;;;5057634;28;20216;-60
2022/03/25 07:12:58;;;;;;;23.50;18.17;;;11.40;72.60;;;;;;5061287;28;20240;-60
2022/03/25 07:15:24;;;;;;;21.27;17.23;;;12.60;68.80;;;;;;5060134;28;20273;-60
2022/03/25 07:17:52;;;;;;;22.00;16.70;;;12.30;66.50;;;;;;5057776;28;20850;-61
2022/03/25 07:20:18;;;;;;;23.30;16.90;;;12.70;67.00;;;;;;5051003;28;20236;-54
2022/03/25 07:22:46;;;;;;;22.48;18.05;;;13.60;63.30;;;;;;5057375;28;20229;-54
2022/03/25 07:25:13;;;;;;;26.67;18.58;;;14.30;60.60;;;;;;5052771;28;20185;-53
2022/03/25 07:27:38;;;;;;;22.92;17.98;;;15.00;58.40;;;;;;5055751;28;22591;-58
2022/03/25 07:30:05;;;;;;;27.10;19.87;;;16.10;57.40;;;;;;5056082;28;20463;-59
2022/03/25 07:32:31;;;;;;;23.67;18.92;;;17.70;54.70;;;;;;5054704;28;20224;-60
2022/03/25 07:34:57;;;;;;;24.10;18.75;;;19.50;50.20;;;;;;5054209;28;20270;-61
2022/03/25 07:37:22;;;;;;;28.83;20.70;;;20.80;46.70;;;;;;5064367;28;20238;-60
2022/03/25 07:39:48;;;;;;;32.03;22.83;;;20.30;44.40;;;;;;5061359;28;20189;-61
2022/03/25 07:42:14;;;;;;;24.80;20.27;;;20.70;45.30;;;;;;5062543;28;20204;-61
2022/03/25 07:44:40;;;;;;;30.00;20.03;;;21.50;43.40;;;;;;5052296;28;20186;-61
2022/03/25 07:47:07;;;;;;;24.90;21.30;;;21.00;43.00;;;;;;5061187;28;20439;-61
2022/03/25 07:49:38;;;;;;;27.40;23.07;;;21.80;41.90;;;;;;5050912;28;20444;-61
2022/03/25 07:52:05;;;;;;;29.03;20.70;;;22.20;40.50;;;;;;5050761;28;20486;-61
2022/03/25 07:54:31;;;;;;;27.40;21.70;;;22.80;40.00;;;;;;5052747;28;20452;-62
2022/03/25 07:56:58;;;;;;;31.07;21.97;;;23.60;39.10;;;;;;5063001;28;20470;-61
2022/03/25 07:59:25;;;;;;;25.10;20.97;;;23.40;38.20;;;;;;5056949;28;20533;-63
2022/03/25 08:01:52;;;;;;;25.30;21.73;;;24.00;37.40;;;;;;5052328;28;20491;-60
2022/03/25 08:04:18;;;;;;;23.40;20.73;;;24.20;36.80;;;;;;5056584;28;20432;-60
2022/03/25 08:06:44;;;;;;;26.30;20.60;;;24.30;36.20;;;;;;5051127;28;20555;-60
2022/03/25 08:09:11;;;;;;;25.00;22.20;;;24.30;35.90;;;;;;5052763;28;20447;-60
2022/03/25 08:11:37;;;;;;;31.87;22.27;;;23.70;35.60;;;;;;5049608;28;20282;-61
2022/03/25 08:14:02;;;;;;;28.20;21.73;;;23.70;36.10;;;;;;5052625;28;20470;-58
2022/03/25 08:16:28;;;;;;;26.93;21.83;;;24.30;35.30;;;;;;5057196;28;20189;-59
2022/03/25 08:18:53;;;;;;;23.67;20.50;;;24.90;34.90;;;;;;5060273;28;20188;-59
2022/03/25 08:21:19;;;;;;;24.40;21.57;;;24.80;34.30;;;;;;5055321;28;20258;-60
2022/03/25 08:29:13;;;;;;;25.00;22.20;;;25.10;34.00;;;;;;5054667;28;20932;-59
2022/03/25 08:31:38;;;;;;;24.20;21.70;;;24.30;33.60;;;;;;5051855;28;20504;-61
2022/03/25 08:34:07;;;;;;;25.87;21.30;;;23.60;35.10;;;;;;5050582;28;20188;-61
2022/03/25 08:36:33;;;;;;;25.83;21.93;;;24.20;35.00;;;;;;5049451;28;20207;-59
2022/03/25 08:38:59;;;;;;;24.63;21.90;;;23.90;34.90;;;;;;5037799;28;20438;-61
2022/03/25 08:41:24;;;;;;;24.37;21.77;;;23.80;34.40;;;;;;5060331;28;20894;-62
2022/03/25 08:43:50;;;;;;;26.03;22.60;;;24.70;34.20;;;;;;5053071;28;20224;-63
2022/03/25 08:46:19;;;;;;;26.43;22.60;;;25.20;33.50;;;;;;5054704;28;20180;-62
2022/03/25 08:48:44;;;;;;;26.00;21.60;;;25.40;33.10;;;;;;5056176;28;20186;-59
2022/03/25 08:51:10;;;;;;;25.27;22.03;;;25.60;32.60;;;;;;5051662;28;20497;-60
2022/03/25 08:53:36;;;;;;;23.87;21.37;;;25.30;32.70;;;;;;5049928;28;20302;-58
2022/03/25 08:56:01;;;;;;;27.93;22.97;;;25.20;32.60;;;;;;5039854;28;20246;-58
2022/03/25 08:58:27;;;;;;;29.37;22.60;;;24.20;31.80;;;;;;5063851;28;20186;-58
2022/03/25 09:00:52;;;;;;;26.77;22.70;;;22.30;34.20;;;;;;5067092;28;20224;-58
2022/03/25 09:03:18;;;;;;;26.53;21.87;;;22.10;36.00;;;;;;5044848;28;20262;-58
2022/03/25 09:05:44;;;;;;;25.57;22.10;;;23.20;34.50;;;;;;5036871;28;20259;-58
2022/03/25 09:08:09;;;;;;;27.50;21.43;;;22.80;34.10;;;;;;5054778;28;20659;-58
2022/03/25 09:10:35;;;;;;;30.50;22.80;;;22.40;35.00;;;;;;5059102;28;20436;-59
2022/03/25 09:13:01;;;;;;;28.10;23.50;;;22.50;35.00;;;;;;5056287;28;20201;-58
2022/03/25 09:15:26;;;;;;;33.90;24.50;;;22.40;35.30;;;;;;5051845;28;20189;-58
2022/03/25 09:17:52;;;;;;;27.90;22.17;;;22.60;34.60;;;;;;5049112;28;20308;-59
2022/03/25 09:20:19;;;;;;;28.10;22.23;;;22.70;34.30;;;;;;5054996;28;20271;-58
2022/03/25 09:22:44;;;;;;;32.50;22.83;;;22.60;34.70;;;;;;5050455;28;20456;-58
2022/03/25 09:25:11;;;;;;;29.83;23.00;;;22.00;35.30;;;;;;5039212;28;20987;-59
2022/03/25 09:27:38;;;;;;;29.80;21.87;;;22.30;35.20;;;;;;5048711;28;20261;-59
2022/03/25 09:30:06;;;;;;;26.27;21.70;;;22.40;34.80;;;;;;5055308;28;20440;-59
2022/03/25 09:32:31;;;;;;;27.70;23.97;;;22.70;34.90;;;;;;5049280;28;20504;-59
2022/03/25 09:35:09;;;;;;;30.20;24.17;;;22.20;34.80;;;;;;5045074;28;20502;-58
2022/03/25 09:37:40;;;;;;;28.97;24.67;;;22.90;34.80;;;;;;5047897;28;20189;-58
2022/03/25 09:40:08;;;;;;;25.57;21.80;;;23.00;34.00;;;;;;5047664;28;20428;-58
2022/03/25 09:42:36;;;;;;;29.20;22.87;;;22.70;34.40;;;;;;5063067;28;20811;-62
2022/03/25 09:45:04;;;;;;;28.10;23.13;;;22.90;33.70;;;;;;5051779;28;20439;-61
2022/03/25 09:47:33;;;;;;;30.50;24.60;;;23.10;33.20;;;;;;5057670;28;20439;-64
2022/03/25 09:50:03;;;;;;;27.73;23.77;;;23.50;33.10;;;;;;5055668;28;20437;-63
2022/03/25 09:52:31;;;;;;;27.93;23.27;;;23.60;33.50;;;;;;5048872;28;20482;-62
2022/03/25 09:54:58;;;;;;;28.93;24.43;;;23.90;33.10;;;;;;5050004;28;20932;-61
2022/03/25 09:57:25;;;;;;;25.60;22.90;;;25.10;31.50;;;;;;5055954;28;20438;-62
2022/03/25 09:59:50;;;;;;;27.33;24.43;;;25.70;30.80;;;;;;5058380;28;20440;-61
2022/03/25 10:02:16;;;;;;;30.97;24.47;;;26.10;30.20;;;;;;5047845;28;20560;-64
2022/03/25 10:04:47;;;;;;;27.67;24.47;;;24.40;29.50;;;;;;5053093;28;20633;-64
2022/03/25 10:07:27;;;;;;;28.63;23.40;;;25.40;31.00;;;;;;5060476;28;20219;-68
2022/03/25 10:10:16;;;;;;;30.43;25.23;;;26.80;29.20;;;;;;5054533;28;20520;-70
2022/03/25 10:12:45;;;;;;;27.53;24.70;;;26.70;28.70;;;;;;5053806;28;21497;-66
2022/03/25 10:15:13;;;;;;;28.67;23.77;;;26.80;29.00;;;;;;5052062;28;20796;-65
2022/03/25 10:17:54;;;;;;;27.50;24.70;;;27.30;28.40;;;;;;5047704;28;20436;-65
2022/03/25 10:20:30;;;;;;;29.13;25.87;;;27.30;27.90;;;;;;5051460;28;20437;-67
2022/03/25 10:23:17;;;;;;;28.77;24.03;;;27.20;27.80;;;;;;5055083;28;20448;-65
2022/03/25 10:25:44;;;;;;;30.90;24.83;;;27.10;27.70;;;;;;5057024;28;20948;-70
2022/03/25 10:28:29;;;;;;;28.83;25.03;;;26.30;28.60;;;;;;5058624;28;20444;-64
2022/03/25 10:31:00;;;;;;;28.30;24.00;;;25.00;29.00;;;;;;5061495;28;20560;-64
2022/03/25 10:33:32;;;;;;;30.50;25.10;;;24.20;29.60;;;;;;5055034;28;20436;-63
2022/03/25 10:36:02;;;;;;;25.70;22.23;;;24.60;29.10;;;;;;5049060;28;20482;-64
2022/03/25 10:38:40;;;;;;;24.97;22.37;;;24.80;27.90;;;;;;5054876;28;20438;-64
2022/03/25 10:41:06;;;;;;;25.77;22.97;;;25.30;28.10;;;;;;5061263;28;20451;-63
2022/03/25 10:43:32;;;;;;;29.10;22.60;;;24.30;28.80;;;;;;5054086;28;20521;-66
2022/03/25 10:45:57;;;;;;;30.20;26.87;;;24.10;29.20;;;;;;5047680;28;20225;-65
2022/03/25 10:48:24;;;;;;;26.10;23.30;;;24.20;29.10;;;;;;5056537;28;20551;-64
2022/03/25 10:50:53;;;;;;;27.10;24.23;;;24.20;29.90;;;;;;5051206;28;20222;-64
2022/03/25 10:53:21;;;;;;;26.37;23.50;;;24.20;29.60;;;;;;5052608;28;20506;-65
2022/03/25 10:56:16;;;;;;;30.53;22.70;;;23.70;29.10;;;;;;5064001;28;20458;-65
2022/03/25 10:58:51;;;;;;;26.33;22.57;;;23.10;29.80;;;;;;5031495;28;20700;-66
2022/03/25 11:01:17;;;;;;;27.93;22.00;;;23.10;30.40;;;;;;5054389;28;20459;-66
2022/03/25 11:03:44;;;;;;;30.37;22.00;;;23.00;31.50;;;;;;5051052;28;20525;-65
2022/03/25 11:06:15;;;;;;;27.00;22.60;;;23.50;31.20;;;;;;5050082;28;20185;-64
2022/03/25 11:08:43;;;;;;;26.57;23.37;;;23.40;30.00;;;;;;5058918;28;20452;-62
2022/03/25 11:11:09;;;;;;;27.60;24.63;;;23.70;30.60;;;;;;5051206;28;20608;-61
2022/03/25 11:13:34;;;;;;;28.30;24.37;;;23.90;29.70;;;;;;5057016;28;20507;-61
2022/03/25 11:16:02;;;;;;;28.97;22.83;;;23.70;30.00;;;;;;5056055;28;20456;-61
2022/03/25 11:18:28;;;;;;;27.30;22.93;;;24.00;29.80;;;;;;5049916;28;20190;-60
2022/03/25 11:20:56;;;;;;;25.70;22.50;;;24.10;30.80;;;;;;5059352;28;20445;-61
2022/03/25 11:23:30;;;;;;;25.97;23.20;;;25.40;29.50;;;;;;5061637;28;20443;-61
2022/03/25 11:25:57;;;;;;;28.60;24.67;;;25.60;28.90;;;;;;5060648;28;20499;-62
2022/03/25 11:28:33;;;;;;;25.77;21.90;;;25.80;28.30;;;;;;5050719;28;20435;-61
2022/03/25 11:31:00;;;;;;;32.00;23.67;;;26.20;27.80;;;;;;5051918;28;20788;-62
2022/03/25 11:33:27;;;;;;;25.60;22.90;;;25.90;27.70;;;;;;5051337;28;20454;-62
2022/03/25 11:36:16;;;;;;;26.60;23.90;;;25.20;28.60;;;;;;5051847;28;20454;-62
2022/03/25 11:38:45;;;;;;;23.37;20.87;;;24.40;28.90;;;;;;5051597;28;20528;-62
2022/03/25 11:41:25;;;;;;;24.80;22.10;;;24.30;28.50;;;;;;5045888;28;20896;-62
2022/03/25 11:44:16;;;;;;;25.53;22.80;;;24.70;28.20;;;;;;5058824;28;20470;-62
2022/03/25 11:47:00;;;;;;;26.13;23.37;;;25.30;28.10;;;;;;5051330;28;20462;-62
2022/03/25 11:49:36;;;;;;;25.63;22.90;;;24.90;28.40;;;;;;5034144;28;20491;-62
2022/03/25 11:52:16;;;;;;;25.57;22.77;;;24.50;28.90;;;;;;5049665;28;20900;-63
2022/03/25 11:54:43;;;;;;;24.90;22.20;;;23.80;28.40;;;;;;5051972;28;20499;-62
2022/03/25 11:57:23;;;;;;;24.43;21.63;;;23.70;29.20;;;;;;5051853;28;20493;-62
2022/03/25 11:59:53;;;;;;;23.70;21.30;;;24.20;28.70;;;;;;5056601;28;20436;-63
2022/03/25 12:02:27;;;;;;;26.30;22.07;;;24.20;28.40;;;;;;5052275;28;20873;-62
2022/03/25 12:04:53;;;;;;;24.63;22.00;;;23.70;28.70;;;;;;5061172;28;20973;-62
2022/03/25 12:07:19;;;;;;;23.70;20.80;;;23.80;28.70;;;;;;5052250;28;20443;-62
2022/03/25 12:09:46;;;;;;;25.77;22.93;;;23.50;29.10;;;;;;5047313;28;20641;-61
2022/03/25 12:12:12;;;;;;;25.23;22.47;;;23.60;29.30;;;;;;5033620;28;20482;-61
2022/03/25 12:15:04;;;;;;;24.30;21.43;;;23.30;29.10;;;;;;5034103;28;20493;-60
2022/03/25 12:17:30;;;;;;;24.57;20.93;;;23.40;29.60;;;;;;5055335;28;20592;-60
2022/03/25 12:19:56;;;;;;;23.17;20.70;;;23.30;28.80;;;;;;5049811;28;20439;-60
2022/03/25 12:22:21;;;;;;;25.80;20.43;;;22.70;29.20;;;;;;5056827;28;20316;-61
2022/03/25 12:24:49;;;;;;;23.00;20.50;;;22.50;29.50;;;;;;5049564;28;20220;-61
2022/03/25 12:27:15;;;;;;;24.90;22.20;;;22.30;30.10;;;;;;5063404;28;20189;-67
2022/03/25 12:29:43;;;;;;;24.50;21.93;;;22.30;31.00;;;;;;5037202;28;20451;-65
2022/03/25 12:32:10;;;;;;;23.20;19.67;;;22.00;31.80;;;;;;5052592;28;20477;-67
2022/03/25 12:34:58;;;;;;;25.10;20.48;;;21.80;30.00;;;;;;5053430;28;21270;-69
2022/03/25 12:37:42;;;;;;;22.60;19.33;;;21.60;30.50;;;;;;5056617;28;20192;-70
2022/03/25 12:40:20;;;;;;;23.38;19.77;;;22.00;31.50;;;;;;5058175;28;20216;-67